createdAt,value
2023-04-28T00:09:45.078Z,62.90
2023-04-28T00:19:50.078Z,63.10
2023-04-28T00:29:54.765Z,63.35
2023-04-28T00:39:58.411Z,63.40
2023-04-28T00:50:06.838Z,63.48
2023-04-28T01:00:12.135Z,63.61
2023-04-28T01:10:15.973Z,63.84
2023-04-28T01:20:19.343Z,63.85
2023-04-28T01:30:23.091Z,63.90
2023-04-28T01:40:27.169Z,63.98
2023-04-28T01:50:31.022Z,64.39
2023-04-28T02:00:35.493Z,64.48
2023-04-28T02:10:39.268Z,64.65
2023-04-28T02:20:47.074Z,64.89
2023-04-28T02:30:51.145Z,65.08
2023-04-28T02:40:58.374Z,65.26
2023-04-28T02:51:02.130Z,65.78
2023-04-28T03:01:09.597Z,65.79
2023-04-28T03:11:13.475Z,66.00
2023-04-28T03:21:20.561Z,66.10
2023-04-28T03:31:24.201Z,66.52
2023-04-28T03:41:27.790Z,66.99
2023-04-28T03:51:31.241Z,67.19
2023-04-28T04:01:35.477Z,67.45
2023-04-28T04:11:39.153Z,67.78
2023-04-28T04:21:46.654Z,67.71
2023-04-28T04:31:53.520Z,67.46
2023-04-28T04:41:57.333Z,66.80
2023-04-28T04:52:01.589Z,66.16
2023-04-28T05:02:05.256Z,66.23
2023-04-28T05:12:08.521Z,65.73
2023-04-28T05:22:12.480Z,65.05
2023-04-28T05:32:16.352Z,63.98
2023-04-28T05:42:23.521Z,63.19
2023-04-28T05:52:27.802Z,61.88
2023-04-28T06:02:31.786Z,60.09
2023-04-28T06:12:35.988Z,58.16
2023-04-28T06:22:39.653Z,56.38
2023-04-28T06:32:46.391Z,54.71
2023-04-28T06:42:50.517Z,52.78
2023-04-28T06:52:54.144Z,50.55
2023-04-28T07:02:57.831Z,49.53
2023-04-28T07:13:26.174Z,47.09
2023-04-28T07:23:30.053Z,46.70
2023-04-28T07:43:37.305Z,46.30
2023-04-28T08:03:48.308Z,43.32
2023-04-28T08:13:52.744Z,41.35
2023-04-28T08:23:56.646Z,42.58
2023-04-28T08:34:00.497Z,41.29
2023-04-28T08:44:07.288Z,40.73
2023-04-28T08:54:25.435Z,39.92
2023-04-28T09:04:30.602Z,39.93
2023-04-28T09:14:36.023Z,40.33
2023-04-28T09:24:41.109Z,40.08
2023-04-28T09:34:44.842Z,39.64
2023-04-28T09:44:53.182Z,37.63
2023-04-28T09:54:58.239Z,37.47
2023-04-28T10:05:03.276Z,36.84
2023-04-28T10:15:09.471Z,36.25
2023-04-28T10:25:25.229Z,36.35
2023-04-28T10:35:43.497Z,36.99
2023-04-28T10:46:08.436Z,37.40
2023-04-28T10:56:14.746Z,36.44
2023-04-28T11:06:26.222Z,35.73
2023-04-28T11:16:48.269Z,35.72
2023-04-28T11:26:52.813Z,35.12
2023-04-28T11:36:56.977Z,35.89
2023-04-28T11:47:03.690Z,34.94
2023-04-28T11:57:17.150Z,34.35
2023-04-28T12:07:24.839Z,34.58
2023-04-28T12:17:30.259Z,34.88
2023-04-28T12:27:36.198Z,34.78
2023-04-28T12:37:42.861Z,34.46
2023-04-28T12:47:46.796Z,34.51
2023-04-28T12:57:51.194Z,34.72
2023-04-28T13:07:54.409Z,34.89
2023-04-28T13:17:58.092Z,34.94
2023-04-28T13:28:02.376Z,35.15
2023-04-28T13:38:06.767Z,34.62
2023-04-28T13:48:11.651Z,34.35
2023-04-28T13:58:18.165Z,34.30
2023-04-28T14:08:23.232Z,34.70
2023-04-28T14:18:33.274Z,34.58
2023-04-28T14:28:37.203Z,33.77
2023-04-28T14:38:40.813Z,34.36
2023-04-28T14:48:45.074Z,34.02
2023-04-28T14:58:49.529Z,34.13
2023-04-28T15:08:52.699Z,34.32
2023-04-28T15:18:57.219Z,34.51
2023-04-28T15:29:00.778Z,34.25
2023-04-28T15:39:09.892Z,34.39
2023-04-28T15:49:13.905Z,33.95
2023-04-28T15:59:18.464Z,34.31
2023-04-28T16:09:22.455Z,34.69
2023-04-28T16:19:26.492Z,34.52
2023-04-28T16:29:30.715Z,34.66
2023-04-28T16:39:34.621Z,34.52
2023-04-28T16:49:38.280Z,35.36
2023-04-28T16:59:41.865Z,35.56
2023-04-28T17:10:10.479Z,35.78
2023-04-28T17:20:18.948Z,36.02
2023-04-28T17:30:23.881Z,36.56
2023-04-28T17:40:27.475Z,37.18
2023-04-28T17:50:31.191Z,37.66
2023-04-28T18:00:34.907Z,38.24
2023-04-28T18:10:38.782Z,38.84
2023-04-28T18:20:42.249Z,39.06
2023-04-28T18:30:45.673Z,39.56
2023-04-28T18:40:55.356Z,39.98
2023-04-28T18:50:59.459Z,40.43
2023-04-28T19:01:03.071Z,40.68
2023-04-28T19:11:06.294Z,41.14
2023-04-28T19:21:13.653Z,41.62
2023-04-28T19:31:17.328Z,42.18
2023-04-28T19:51:24.441Z,43.00
2023-04-28T20:11:32.097Z,43.42
2023-04-28T20:21:36.429Z,43.72
2023-04-28T20:31:40.278Z,44.00
2023-04-28T20:41:48.063Z,44.28
2023-04-28T20:51:51.447Z,44.87
2023-04-28T21:01:55.297Z,45.15
2023-04-28T21:11:58.895Z,45.32
2023-04-28T21:22:03.780Z,45.75
2023-04-28T21:32:08.093Z,45.62
2023-04-28T21:42:11.874Z,45.64
2023-04-28T21:52:15.742Z,45.39
2023-04-28T22:02:19.717Z,45.29
2023-04-28T22:12:23.767Z,45.44
2023-04-28T22:22:27.335Z,45.50
2023-04-28T22:32:31.426Z,45.90
2023-04-28T22:52:39.775Z,46.45
2023-04-28T23:02:44.459Z,46.67
2023-04-28T23:12:48.273Z,46.90
2023-04-28T23:22:52.092Z,47.48
2023-04-28T23:32:59.728Z,47.96
2023-04-28T23:43:06.684Z,48.63
2023-04-28T23:53:10.479Z,49.21
